Guatemala City, Guatemala
Current Conditions -  °F | °C
As of 5:00 PM on Friday 28 Nov 2014 (Local Time) from MGGT Reporting Station
Scattered Clouds Scattered Clouds  
Wind Chill: 61°   Ceiling: Unl
Heat Index: 61°   Visibility: 6mi
Dew Point: 55°   Wind: 18mph
Humidity: 82%   Direction: 360°N
Pressure: 30.27"   Gusts: 30mph
Location:  14.58°N, 90.52°W
Report Text: MGGT 282300Z 36016G26KT 9999 SCT016 16/13 Q1025 A3027
Loading
Personal Weather Stations






























Interactive Weather Map New forecast layout! Learn more

10-Day Weather Forecast

Advertisements
Track Severe Weather on mobile